Time;durP1;ratioP1;P1;durP2;ratioP2;P2;SDS_P1;SDS_P2;PMS_P1;PMS_P2;Temp;Humidity;BMP_temperature;BMP_pressure;BME280_temperature;BME280_humidity;BME280_pressure;Samples;Min_cycle;Max_cycle;Signal;HPM_P1;HPM_P2
2021/04/29 00:00:20;;;;;;;;;;;11.60;99.90;;;;;;8260403;28;19917;-65
2021/04/29 00:04:20;;;;;;;;;;;11.60;99.90;;;;;;8260153;28;19941;-66
2021/04/29 00:08:21;;;;;;;;;;;11.70;99.90;;;;;;8242920;28;19969;-66
2021/04/29 00:12:21;;;;;;;;;;;11.60;99.90;;;;;;8259733;28;20467;-65
2021/04/29 00:16:22;;;;;;;;;;;11.50;99.90;;;;;;8246266;28;19921;-65
2021/04/29 00:20:23;;;;;;;;;;;11.40;99.90;;;;;;8266428;28;19905;-65
2021/04/29 00:24:23;;;;;;;;;;;11.30;99.90;;;;;;8266133;28;20491;-66
2021/04/29 00:28:24;;;;;;;;;;;11.40;99.90;;;;;;8280612;28;19913;-66
2021/04/29 00:32:24;;;;;;;;;;;11.60;99.90;;;;;;8298274;28;19905;-65
2021/04/29 00:36:25;;;;;;;;;;;11.50;99.90;;;;;;8298721;28;19909;-66
2021/04/29 00:40:26;;;;;;;;;;;11.60;99.90;;;;;;8298677;28;19910;-66
2021/04/29 00:44:26;;;;;;;;;;;11.80;99.90;;;;;;8297225;28;19906;-66
2021/04/29 00:48:27;;;;;;;;;;;11.80;99.90;;;;;;8298677;28;19916;-66
2021/04/29 00:52:29;;;;;;;;;;;11.60;99.90;;;;;;8298247;28;20211;-66
2021/04/29 00:56:29;;;;;;;;;;;11.70;99.90;;;;;;8282910;28;20356;-65
2021/04/29 01:00:30;;;;;;;;;;;11.80;99.90;;;;;;8248195;28;19996;-66
2021/04/29 01:04:36;;;;;;;;;;;11.80;99.90;;;;;;8264873;28;19921;-66
2021/04/29 01:08:58;;;;;;;;;;;11.80;99.90;;;;;;8264309;28;19917;-65
2021/04/29 01:13:06;;;;;;;;;;;11.90;99.90;;;;;;8264310;28;20428;-65
2021/04/29 01:17:08;;;;;;;;;;;11.90;99.90;;;;;;8265489;28;19912;-66
2021/04/29 01:21:12;;;;;;;;;;;11.80;99.90;;;;;;8247519;28;19952;-65
2021/04/29 01:25:15;;;;;;;;;;;11.90;99.90;;;;;;8265172;28;19909;-65
2021/04/29 01:29:23;;;;;;;;;;;11.80;99.90;;;;;;8246108;28;19996;-66
2021/04/29 01:33:24;;;;;;;;;;;11.80;99.90;;;;;;8246888;28;19964;-66
2021/04/29 01:37:24;;;;;;;;;;;11.80;99.90;;;;;;8264102;28;19948;-66
2021/04/29 01:41:25;;;;;;;;;;;11.90;99.90;;;;;;8264223;28;20373;-65
2021/04/29 01:45:26;;;;;;;;;;;11.90;99.90;;;;;;8263899;28;19949;-66
2021/04/29 01:49:27;;;;;;;;;;;11.90;99.90;;;;;;8246401;28;19906;-65
2021/04/29 01:53:29;;;;;;;;;;;12.00;99.90;;;;;;8246266;28;19909;-65
2021/04/29 01:57:30;;;;;;;;;;;11.90;99.90;;;;;;8246838;28;19909;-66
2021/04/29 02:01:30;;;;;;;;;;;11.90;99.90;;;;;;8263723;28;19906;-66
2021/04/29 02:05:31;;;;;;;;;;;11.90;99.90;;;;;;8262817;28;20395;-65
2021/04/29 02:09:31;;;;;;;;;;;11.90;99.90;;;;;;8262788;28;19961;-65
2021/04/29 02:13:33;;;;;;;;;;;11.90;99.90;;;;;;8262707;28;20372;-65
2021/04/29 02:17:37;;;;;;;;;;;11.80;99.90;;;;;;8262966;28;20427;-65
2021/04/29 02:21:38;;;;;;;;;;;11.80;99.90;;;;;;8245820;28;19910;-66
2021/04/29 02:25:39;;;;;;;;;;;11.70;99.90;;;;;;8245548;28;20345;-65
2021/04/29 02:29:43;;;;;;;;;;;11.80;99.90;;;;;;8262037;28;20387;-65
2021/04/29 02:33:44;;;;;;;;;;;11.80;99.90;;;;;;8243793;28;19933;-65
2021/04/29 02:37:46;;;;;;;;;;;11.80;99.90;;;;;;8270057;28;19944;-65
2021/04/29 02:41:47;;;;;;;;;;;11.70;99.90;;;;;;8312746;28;19937;-66
2021/04/29 02:45:47;;;;;;;;;;;11.80;99.90;;;;;;8262027;28;19952;-65
2021/04/29 02:49:48;;;;;;;;;;;11.80;99.90;;;;;;8261894;28;19921;-65
2021/04/29 02:53:48;;;;;;;;;;;11.90;99.90;;;;;;8261780;28;19906;-65
2021/04/29 02:57:49;;;;;;;;;;;11.90;99.90;;;;;;8262543;28;19956;-65
2021/04/29 03:01:49;;;;;;;;;;;11.90;99.90;;;;;;8261729;28;20056;-66
2021/04/29 03:05:50;;;;;;;;;;;11.80;99.90;;;;;;8244110;28;20586;-65
2021/04/29 03:09:51;;;;;;;;;;;11.90;99.90;;;;;;8261344;28;19936;-65
2021/04/29 03:13:51;;;;;;;;;;;11.90;99.90;;;;;;8243175;28;19913;-65
2021/04/29 03:17:52;;;;;;;;;;;11.80;99.90;;;;;;8243762;28;19941;-65
2021/04/29 03:21:52;;;;;;;;;;;11.90;99.90;;;;;;8260820;28;20486;-65
2021/04/29 03:25:53;;;;;;;;;;;11.80;99.90;;;;;;8261151;28;19920;-65
2021/04/29 03:29:54;;;;;;;;;;;11.70;99.90;;;;;;8243671;28;19953;-65
2021/04/29 03:33:54;;;;;;;;;;;11.70;99.90;;;;;;8268482;28;20376;-65
2021/04/29 03:37:55;;;;;;;;;;;11.60;99.90;;;;;;8265768;28;19909;-65
2021/04/29 03:41:55;;;;;;;;;;;11.40;99.90;;;;;;8274321;28;19991;-65
2021/04/29 03:45:56;;;;;;;;;;;11.30;99.90;;;;;;8276112;28;19910;-65
2021/04/29 03:49:56;;;;;;;;;;;11.10;99.90;;;;;;8282648;28;19909;-66
2021/04/29 03:53:58;;;;;;;;;;;11.00;99.90;;;;;;8299750;28;20008;-65
2021/04/29 03:57:58;;;;;;;;;;;11.00;99.90;;;;;;8282602;28;19964;-65
2021/04/29 04:01:59;;;;;;;;;;;10.90;99.90;;;;;;8300443;28;19909;-66
2021/04/29 04:05:59;;;;;;;;;;;10.80;99.90;;;;;;8299842;28;19920;-65
2021/04/29 04:10:00;;;;;;;;;;;10.80;99.90;;;;;;8281847;28;20020;-65
2021/04/29 04:14:00;;;;;;;;;;;10.70;99.90;;;;;;8299652;28;20631;-65
2021/04/29 04:18:00;;;;;;;;;;;10.70;99.90;;;;;;8299392;28;19913;-65
2021/04/29 04:22:01;;;;;;;;;;;10.70;99.90;;;;;;8299043;28;20562;-65
2021/04/29 04:26:02;;;;;;;;;;;10.60;99.90;;;;;;8281093;28;19948;-65
2021/04/29 04:30:04;;;;;;;;;;;10.60;99.90;;;;;;8281452;28;20053;-65
2021/04/29 04:34:04;;;;;;;;;;;10.70;99.90;;;;;;8295319;28;19909;-65
2021/04/29 04:38:05;;;;;;;;;;;10.60;99.90;;;;;;8298966;28;19948;-65
2021/04/29 04:42:05;;;;;;;;;;;10.70;99.90;;;;;;8298469;28;19916;-66
2021/04/29 04:46:06;;;;;;;;;;;10.70;99.90;;;;;;8298083;28;19913;-65
2021/04/29 04:50:07;;;;;;;;;;;10.60;99.90;;;;;;8298576;28;19905;-65
2021/04/29 04:54:08;;;;;;;;;;;10.60;99.90;;;;;;8298492;28;19905;-65
2021/04/29 04:58:09;;;;;;;;;;;10.60;99.90;;;;;;8265287;28;19910;-66
2021/04/29 05:02:09;;;;;;;;;;;10.50;99.90;;;;;;8262768;28;19921;-65
2021/04/29 05:06:10;;;;;;;;;;;10.50;99.90;;;;;;8247953;28;19917;-65
2021/04/29 05:10:10;;;;;;;;;;;10.50;99.90;;;;;;8265160;28;19933;-65
2021/04/29 05:14:11;;;;;;;;;;;10.50;99.90;;;;;;8265012;28;19906;-65
2021/04/29 05:18:11;;;;;;;;;;;10.60;99.90;;;;;;8283692;28;20629;-65
2021/04/29 05:22:14;;;;;;;;;;;10.60;99.90;;;;;;8285090;28;19996;-64
2021/04/29 05:26:15;;;;;;;;;;;10.70;99.90;;;;;;8277813;28;19914;-64
2021/04/29 05:30:15;;;;;;;;;;;10.80;99.90;;;;;;8269155;28;20331;-64
2021/04/29 05:34:16;;;;;;;;;;;10.80;99.90;;;;;;8271058;28;19916;-64
2021/04/29 05:38:16;;;;;;;;;;;10.90;99.90;;;;;;8268117;28;19985;-63
2021/04/29 05:42:17;;;;;;;;;;;10.80;99.90;;;;;;8271748;28;19909;-63
2021/04/29 05:46:17;;;;;;;;;;;10.80;99.90;;;;;;8295700;28;19914;-63
2021/04/29 05:50:18;;;;;;;;;;;10.70;99.90;;;;;;8285761;28;19964;-64
2021/04/29 05:54:18;;;;;;;;;;;10.80;99.90;;;;;;8271304;28;20054;-64
2021/04/29 05:58:19;;;;;;;;;;;10.70;99.90;;;;;;8278113;28;19914;-64
2021/04/29 06:02:19;;;;;;;;;;;10.70;99.90;;;;;;8264488;28;19917;-63
2021/04/29 06:06:20;;;;;;;;;;;10.70;99.90;;;;;;8261483;28;19945;-64
2021/04/29 06:10:21;;;;;;;;;;;10.70;99.90;;;;;;8277046;28;19913;-65
2021/04/29 06:14:21;;;;;;;;;;;10.80;99.90;;;;;;8275198;28;19956;-64
2021/04/29 06:18:22;;;;;;;;;;;10.70;99.90;;;;;;8278697;28;19906;-64
2021/04/29 06:22:22;;;;;;;;;;;10.70;99.90;;;;;;8258971;28;19909;-63
2021/04/29 06:26:23;;;;;;;;;;;10.70;99.90;;;;;;8279915;28;19914;-63
2021/04/29 06:30:23;;;;;;;;;;;10.80;99.90;;;;;;8283155;28;19967;-63
2021/04/29 06:34:24;;;;;;;;;;;10.90;99.90;;;;;;8287884;28;19918;-63
2021/04/29 06:38:25;;;;;;;;;;;11.00;99.90;;;;;;8289058;28;20432;-65
2021/04/29 06:42:25;;;;;;;;;;;11.10;99.90;;;;;;8284571;28;20004;-63
2021/04/29 06:46:26;;;;;;;;;;;11.00;99.90;;;;;;8279768;28;19920;-63
2021/04/29 06:50:26;;;;;;;;;;;10.90;99.90;;;;;;8266842;28;19964;-63
2021/04/29 06:54:27;;;;;;;;;;;10.90;99.90;;;;;;8265024;28;19964;-64
2021/04/29 06:58:28;;;;;;;;;;;11.00;99.90;;;;;;8271503;28;19909;-64
2021/04/29 07:02:29;;;;;;;;;;;11.00;99.90;;;;;;8263523;28;19967;-66
2021/04/29 07:06:29;;;;;;;;;;;11.00;99.90;;;;;;8293963;28;20504;-65
2021/04/29 07:10:30;;;;;;;;;;;11.00;99.90;;;;;;8293693;28;19913;-65
2021/04/29 07:14:30;;;;;;;;;;;11.00;99.90;;;;;;8293919;28;20454;-65
2021/04/29 07:18:31;;;;;;;;;;;10.90;99.90;;;;;;8274375;28;19910;-65
2021/04/29 07:22:32;;;;;;;;;;;10.80;99.90;;;;;;8274371;28;20386;-64
2021/04/29 07:26:33;;;;;;;;;;;10.70;99.90;;;;;;8271487;28;19914;-63
2021/04/29 07:30:35;;;;;;;;;;;10.70;99.90;;;;;;8291020;28;20287;-64
2021/04/29 07:34:36;;;;;;;;;;;10.80;99.90;;;;;;8270895;28;19913;-64
2021/04/29 07:38:36;;;;;;;;;;;10.70;99.90;;;;;;8258069;28;20269;-64
2021/04/29 07:42:37;;;;;;;;;;;10.80;99.90;;;;;;8267190;28;19920;-64
2021/04/29 07:46:37;;;;;;;;;;;10.90;99.90;;;;;;8276877;28;19960;-64
2021/04/29 07:50:37;;;;;;;;;;;10.90;99.90;;;;;;8260855;28;19918;-63
2021/04/29 07:54:38;;;;;;;;;;;11.10;99.90;;;;;;8262223;28;19910;-64
2021/04/29 07:58:38;;;;;;;;;;;11.20;99.90;;;;;;8260843;28;20038;-63
2021/04/29 08:02:41;;;;;;;;;;;11.10;99.90;;;;;;8260182;28;19910;-64
2021/04/29 08:06:42;;;;;;;;;;;11.20;99.90;;;;;;8243032;28;20303;-64
2021/04/29 08:10:43;;;;;;;;;;;11.30;99.90;;;;;;8267834;28;19960;-63
2021/04/29 08:14:43;;;;;;;;;;;11.30;99.90;;;;;;8286132;28;19984;-64
2021/04/29 08:18:44;;;;;;;;;;;11.60;99.90;;;;;;8260497;28;20310;-64
2021/04/29 08:22:46;;;;;;;;;;;11.50;99.90;;;;;;8242660;28;19909;-64
2021/04/29 08:26:46;;;;;;;;;;;11.60;99.90;;;;;;8277444;28;19960;-64
2021/04/29 08:30:47;;;;;;;;;;;11.80;99.90;;;;;;8291741;28;19905;-64
2021/04/29 08:34:48;;;;;;;;;;;12.00;99.90;;;;;;8250989;28;20504;-64
2021/04/29 08:38:49;;;;;;;;;;;12.00;99.90;;;;;;8265284;28;19906;-64
2021/04/29 08:42:49;;;;;;;;;;;11.90;99.90;;;;;;8272990;28;19913;-64
2021/04/29 08:46:50;;;;;;;;;;;12.20;99.90;;;;;;8280769;28;20008;-63
2021/04/29 08:50:52;;;;;;;;;;;12.20;99.90;;;;;;8297664;28;19932;-64
2021/04/29 08:54:52;;;;;;;;;;;12.30;99.90;;;;;;8294507;28;19909;-64
2021/04/29 08:58:53;;;;;;;;;;;12.10;99.90;;;;;;8265518;28;20048;-64
2021/04/29 09:02:54;;;;;;;;;;;12.10;99.90;;;;;;8265009;28;19906;-64
2021/04/29 09:06:56;;;;;;;;;;;12.00;99.90;;;;;;8284871;28;20351;-64
2021/04/29 09:11:10;;;;;;;;;;;11.60;99.90;;;;;;8267073;28;20277;-64
2021/04/29 09:15:20;;;;;;;;;;;11.40;99.90;;;;;;8279030;28;19960;-64
2021/04/29 09:19:22;;;;;;;;;;;11.50;99.90;;;;;;8247005;28;19909;-65
2021/04/29 09:23:23;;;;;;;;;;;11.50;99.90;;;;;;8264327;28;19905;-64
2021/04/29 09:27:24;;;;;;;;;;;11.60;99.90;;;;;;8264344;28;19909;-64
2021/04/29 09:31:27;;;;;;;;;;;11.80;99.90;;;;;;8264270;28;19909;-64
2021/04/29 09:35:28;;;;;;;;;;;11.80;99.90;;;;;;8246511;28;19949;-64
2021/04/29 09:39:32;;;;;;;;;;;11.80;99.90;;;;;;8263541;28;19910;-64
2021/04/29 09:43:33;;;;;;;;;;;11.80;99.90;;;;;;8277775;28;19910;-64
2021/04/29 09:47:33;;;;;;;;;;;11.60;99.90;;;;;;8294867;28;19971;-64
2021/04/29 09:51:34;;;;;;;;;;;11.40;99.90;;;;;;8267869;28;19909;-64
2021/04/29 09:55:36;;;;;;;;;;;11.60;99.90;;;;;;8262453;28;19960;-64
2021/04/29 09:59:49;;;;;;;;;;;11.80;99.90;;;;;;8263368;28;20015;-64
2021/04/29 10:03:50;;;;;;;;;;;11.80;99.90;;;;;;8294769;28;20404;-64
2021/04/29 10:07:51;;;;;;;;;;;12.10;99.90;;;;;;8295002;28;19913;-64
2021/04/29 10:11:55;;;;;;;;;;;12.40;99.90;;;;;;8277926;28;19949;-64
2021/04/29 10:15:57;;;;;;;;;;;12.60;99.90;;;;;;8295653;28;19963;-64
2021/04/29 10:19:59;;;;;;;;;;;12.80;99.90;;;;;;8295241;28;20520;-64
2021/04/29 10:23:59;;;;;;;;;;;12.90;99.90;;;;;;8295156;28;19913;-63
2021/04/29 10:28:01;;;;;;;;;;;13.30;99.90;;;;;;8264644;28;19913;-63
2021/04/29 10:32:02;;;;;;;;;;;13.20;99.90;;;;;;8288487;28;19913;-63
2021/04/29 10:36:03;;;;;;;;;;;13.80;99.90;;;;;;8248213;28;19910;-64
2021/04/29 10:40:05;;;;;;;;;;;14.00;99.90;;;;;;8282355;28;19932;-63
2021/04/29 10:44:24;;;;;;;;;;;13.70;99.90;;;;;;8278882;28;19910;-64
2021/04/29 10:48:26;;;;;;;;;;;13.90;99.90;;;;;;8277669;28;19920;-63
2021/04/29 10:52:28;;;;;;;;;;;14.30;99.90;;;;;;8290380;28;20419;-63
2021/04/29 10:56:28;;;;;;;;;;;14.80;99.90;;;;;;8277708;28;19913;-63
2021/04/29 11:00:30;;;;;;;;;;;14.90;99.90;;;;;;8264281;28;19956;-63
2021/04/29 11:04:39;;;;;;;;;;;14.60;99.90;;;;;;8275220;28;19917;-63
2021/04/29 11:08:41;;;;;;;;;;;14.00;99.90;;;;;;8282762;28;19913;-63
2021/04/29 11:12:48;;;;;;;;;;;13.60;99.90;;;;;;8293422;28;19928;-64
2021/04/29 11:16:53;;;;;;;;;;;13.90;99.90;;;;;;8276445;28;20533;-63
2021/04/29 11:20:57;;;;;;;;;;;13.90;99.90;;;;;;8278341;28;20375;-63
2021/04/29 11:24:58;;;;;;;;;;;14.10;99.90;;;;;;8278357;28;20356;-64
2021/04/29 11:28:59;;;;;;;;;;;14.70;99.90;;;;;;8261204;28;19996;-63
2021/04/29 11:33:01;;;;;;;;;;;14.70;99.90;;;;;;8272054;28;19924;-63
2021/04/29 11:37:01;;;;;;;;;;;15.20;99.90;;;;;;8254834;28;19909;-63
2021/04/29 11:41:09;;;;;;;;;;;14.70;99.90;;;;;;8270187;28;19997;-64
2021/04/29 11:45:11;;;;;;;;;;;14.10;99.90;;;;;;8274978;28;20359;-64
2021/04/29 11:49:12;;;;;;;;;;;14.00;99.90;;;;;;8263988;28;19906;-64
2021/04/29 11:53:13;;;;;;;;;;;13.90;99.90;;;;;;8275716;28;19909;-64
2021/04/29 11:57:14;;;;;;;;;;;13.90;99.90;;;;;;8273163;28;20284;-64
2021/04/29 12:01:15;;;;;;;;;;;13.60;99.90;;;;;;8275993;28;19959;-64
2021/04/29 12:05:15;;;;;;;;;;;13.50;99.90;;;;;;8287490;28;20526;-64
2021/04/29 12:09:17;;;;;;;;;;;13.20;99.90;;;;;;8260192;28;19914;-64
2021/04/29 12:13:35;;;;;;;;;;;13.30;99.90;;;;;;8269874;28;20317;-64
2021/04/29 12:17:36;;;;;;;;;;;13.50;99.90;;;;;;8272365;28;19940;-64
2021/04/29 12:21:38;;;;;;;;;;;14.00;99.90;;;;;;8288393;28;19909;-64
2021/04/29 12:25:39;;;;;;;;;;;14.30;99.90;;;;;;8279896;28;19920;-64
2021/04/29 12:29:40;;;;;;;;;;;14.30;99.90;;;;;;8278669;28;19917;-64
2021/04/29 12:33:54;;;;;;;;;;;14.00;99.90;;;;;;8291635;28;20338;-64
2021/04/29 12:37:55;;;;;;;;;;;13.80;99.90;;;;;;8283561;28;20099;-64
2021/04/29 12:41:55;;;;;;;;;;;13.80;99.90;;;;;;8285324;28;19997;-64
2021/04/29 12:45:56;;;;;;;;;;;14.60;99.90;;;;;;8274439;28;19913;-64
2021/04/29 12:49:58;;;;;;;;;;;16.00;99.90;;;;;;8275779;28;19913;-64
2021/04/29 12:54:02;;;;;;;;;;;17.50;99.90;;;;;;8266363;28;19906;-64
2021/04/29 12:58:06;;;;;;;;;;;17.10;99.90;;;;;;8273595;28;20046;-64
2021/04/29 13:02:07;;;;;;;;;;;16.00;99.90;;;;;;8279668;28;20387;-64
2021/04/29 13:06:09;;;;;;;;;;;15.30;99.90;;;;;;8289768;28;19914;-64
2021/04/29 13:10:20;;;;;;;;;;;14.90;99.90;;;;;;8265167;28;20016;-64
2021/04/29 13:14:26;;;;;;;;;;;14.40;99.90;;;;;;8265180;28;19909;-64
2021/04/29 13:18:27;;;;;;;;;;;14.20;99.90;;;;;;8266496;28;19909;-64
2021/04/29 13:22:27;;;;;;;;;;;14.10;99.90;;;;;;8279438;28;20319;-64
2021/04/29 13:26:28;;;;;;;;;;;14.20;99.90;;;;;;8280555;28;20307;-64
2021/04/29 13:30:28;;;;;;;;;;;14.30;99.90;;;;;;8263227;28;20384;-64
2021/04/29 13:34:29;;;;;;;;;;;14.10;99.90;;;;;;8266456;28;19909;-64
2021/04/29 13:38:29;;;;;;;;;;;14.00;99.90;;;;;;8248055;28;19960;-64
2021/04/29 13:42:30;;;;;;;;;;;14.20;99.90;;;;;;8278133;28;19914;-64
2021/04/29 13:46:31;;;;;;;;;;;14.40;99.90;;;;;;8279359;28;19913;-64
2021/04/29 13:50:31;;;;;;;;;;;14.40;99.90;;;;;;8296206;28;20260;-64
2021/04/29 13:54:32;;;;;;;;;;;14.30;99.90;;;;;;8278313;28;20364;-64
2021/04/29 13:58:33;;;;;;;;;;;14.30;99.90;;;;;;8287505;28;19910;-65
2021/04/29 14:02:34;;;;;;;;;;;14.40;99.90;;;;;;8295722;28;19913;-64
2021/04/29 14:06:34;;;;;;;;;;;14.30;99.90;;;;;;8295775;28;19909;-64
2021/04/29 14:10:35;;;;;;;;;;;14.40;99.90;;;;;;8277609;28;19914;-64
2021/04/29 14:14:35;;;;;;;;;;;14.30;99.90;;;;;;8295509;28;19959;-64
2021/04/29 14:18:36;;;;;;;;;;;14.20;99.90;;;;;;8295713;28;20060;-64
2021/04/29 14:22:37;;;;;;;;;;;14.20;99.90;;;;;;8295161;28;19937;-65
2021/04/29 14:26:37;;;;;;;;;;;14.40;99.90;;;;;;8277497;28;20303;-64
2021/04/29 14:30:39;;;;;;;;;;;14.60;99.90;;;;;;8294691;28;19988;-65
2021/04/29 14:34:40;;;;;;;;;;;14.80;99.90;;;;;;8274511;28;19944;-64
2021/04/29 14:38:40;;;;;;;;;;;15.10;99.90;;;;;;8244313;28;19914;-64
2021/04/29 14:42:41;;;;;;;;;;;15.60;99.90;;;;;;8261667;28;20081;-64
2021/04/29 14:46:42;;;;;;;;;;;16.00;99.90;;;;;;8262056;28;19909;-64
2021/04/29 14:50:42;;;;;;;;;;;15.80;99.90;;;;;;8272275;28;19909;-64
2021/04/29 14:54:43;;;;;;;;;;;14.90;99.90;;;;;;8266039;28;19915;-64
2021/04/29 14:58:43;;;;;;;;;;;14.70;99.90;;;;;;8261754;28;19917;-64
2021/04/29 15:02:44;;;;;;;;;;;14.60;99.90;;;;;;8244018;28;19912;-65
2021/04/29 15:06:45;;;;;;;;;;;14.60;99.90;;;;;;8261406;28;19910;-64
2021/04/29 15:10:45;;;;;;;;;;;14.40;99.90;;;;;;8271511;28;19913;-64
2021/04/29 15:14:46;;;;;;;;;;;14.40;99.90;;;;;;8268335;28;19959;-64
2021/04/29 15:18:46;;;;;;;;;;;14.20;99.90;;;;;;8277012;28;19941;-64
2021/04/29 15:22:47;;;;;;;;;;;14.40;99.90;;;;;;8276759;28;20024;-64
2021/04/29 15:26:48;;;;;;;;;;;14.10;99.90;;;;;;8276254;28;20335;-64
2021/04/29 15:30:48;;;;;;;;;;;14.00;99.90;;;;;;8276862;28;19982;-64
2021/04/29 15:34:49;;;;;;;;;;;14.10;99.90;;;;;;8277070;28;19971;-64
2021/04/29 15:38:49;;;;;;;;;;;14.00;99.90;;;;;;8279145;28;19910;-64
2021/04/29 15:42:50;;;;;;;;;;;14.10;99.90;;;;;;8266994;28;20463;-64
2021/04/29 15:46:51;;;;;;;;;;;14.10;99.90;;;;;;8275814;28;19962;-64
2021/04/29 15:50:58;;;;;;;;;;;14.00;99.90;;;;;;8289308;28;19916;-64
2021/04/29 15:54:58;;;;;;;;;;;14.20;99.90;;;;;;8265812;28;19910;-64
2021/04/29 15:58:59;;;;;;;;;;;14.30;99.90;;;;;;8263824;28;19909;-64
2021/04/29 16:02:59;;;;;;;;;;;14.40;99.90;;;;;;8269680;28;19956;-64
2021/04/29 16:07:00;;;;;;;;;;;14.40;99.90;;;;;;8265370;28;19921;-64
2021/04/29 16:11:00;;;;;;;;;;;14.30;99.90;;;;;;8275169;28;20356;-65
2021/04/29 16:15:02;;;;;;;;;;;14.10;99.90;;;;;;8263439;28;19910;-64
2021/04/29 16:19:03;;;;;;;;;;;14.00;99.90;;;;;;8282691;28;19909;-64
2021/04/29 16:23:03;;;;;;;;;;;13.90;99.90;;;;;;8290974;28;19905;-64
2021/04/29 16:27:04;;;;;;;;;;;13.80;99.90;;;;;;8271179;28;19944;-64
2021/04/29 16:31:05;;;;;;;;;;;13.70;99.90;;;;;;8282529;28;19914;-64
2021/04/29 16:35:06;;;;;;;;;;;13.70;99.90;;;;;;8263085;28;19909;-64
2021/04/29 16:39:07;;;;;;;;;;;13.70;99.90;;;;;;8259921;28;19961;-64
2021/04/29 16:43:07;;;;;;;;;;;13.60;99.90;;;;;;8273918;28;19910;-64
2021/04/29 16:47:08;;;;;;;;;;;13.60;99.90;;;;;;8270193;28;19921;-64
2021/04/29 16:51:09;;;;;;;;;;;13.50;99.90;;;;;;8274448;28;19935;-64
2021/04/29 16:55:10;;;;;;;;;;;13.50;99.90;;;;;;8274429;28;19910;-64
2021/04/29 16:59:11;;;;;;;;;;;13.50;99.90;;;;;;8265438;28;19918;-64
2021/04/29 17:03:11;;;;;;;;;;;13.60;99.90;;;;;;8268191;28;19909;-64
2021/04/29 17:07:12;;;;;;;;;;;13.50;99.90;;;;;;8275880;28;19917;-64
2021/04/29 17:11:13;;;;;;;;;;;13.70;99.90;;;;;;8286817;28;19925;-66
2021/04/29 17:15:15;;;;;;;;;;;13.70;99.90;;;;;;8279279;28;20403;-66
2021/04/29 17:19:16;;;;;;;;;;;13.60;99.90;;;;;;8270154;28;19918;-65
2021/04/29 17:23:16;;;;;;;;;;;13.60;99.90;;;;;;8265205;28;20400;-66
2021/04/29 17:27:17;;;;;;;;;;;13.50;99.90;;;;;;8273199;28;19913;-65
2021/04/29 17:31:18;;;;;;;;;;;13.40;99.90;;;;;;8272215;28;19914;-64
2021/04/29 17:35:18;;;;;;;;;;;13.40;99.90;;;;;;8262567;28;19916;-65
2021/04/29 17:39:19;;;;;;;;;;;13.30;99.90;;;;;;8291438;28;20395;-65
2021/04/29 17:43:19;;;;;;;;;;;13.30;99.90;;;;;;8264574;28;19917;-66
2021/04/29 17:47:20;;;;;;;;;;;13.30;99.90;;;;;;8277013;28;19921;-66
2021/04/29 17:51:21;;;;;;;;;;;13.30;99.90;;;;;;8282548;28;19997;-66
2021/04/29 17:55:21;;;;;;;;;;;13.20;99.90;;;;;;8262876;28;20024;-66
2021/04/29 17:59:22;;;;;;;;;;;13.10;99.90;;;;;;8269805;28;19910;-67
2021/04/29 18:03:23;;;;;;;;;;;13.10;99.90;;;;;;8261657;28;19909;-66
2021/04/29 18:07:23;;;;;;;;;;;13.10;99.90;;;;;;8267378;28;19921;-66
2021/04/29 18:11:24;;;;;;;;;;;13.10;99.90;;;;;;8284057;28;19917;-66
2021/04/29 18:15:25;;;;;;;;;;;13.10;99.90;;;;;;8269769;28;19914;-66
2021/04/29 18:19:25;;;;;;;;;;;13.10;99.90;;;;;;8257411;28;19914;-67
2021/04/29 18:23:26;;;;;;;;;;;12.90;99.90;;;;;;8263686;28;19917;-65
2021/04/29 18:27:27;;;;;;;;;;;12.90;99.90;;;;;;8272437;28;19924;-67
2021/04/29 18:31:27;;;;;;;;;;;12.80;99.90;;;;;;8265500;28;19917;-66
2021/04/29 18:35:28;;;;;;;;;;;12.80;99.90;;;;;;8266796;28;19914;-66
2021/04/29 18:39:29;;;;;;;;;;;12.70;99.90;;;;;;8269851;28;19913;-66
2021/04/29 18:43:29;;;;;;;;;;;12.40;99.90;;;;;;8264947;28;19913;-67
2021/04/29 18:47:30;;;;;;;;;;;12.40;99.90;;;;;;8252193;28;20024;-68
2021/04/29 18:51:30;;;;;;;;;;;12.30;99.90;;;;;;8274278;28;19913;-67
2021/04/29 18:55:31;;;;;;;;;;;12.20;99.90;;;;;;8268457;28;19909;-68
2021/04/29 18:59:32;;;;;;;;;;;12.30;99.90;;;;;;8271481;28;20368;-68
2021/04/29 19:03:33;;;;;;;;;;;12.30;99.90;;;;;;8267774;28;19921;-67
2021/04/29 19:07:33;;;;;;;;;;;12.20;99.90;;;;;;8267740;28;19920;-68
2021/04/29 19:11:37;;;;;;;;;;;11.90;99.90;;;;;;8274975;28;19921;-68
2021/04/29 19:15:37;;;;;;;;;;;12.00;99.90;;;;;;8285327;28;20415;-67
2021/04/29 19:19:38;;;;;;;;;;;12.00;99.90;;;;;;8278885;28;19920;-67
2021/04/29 19:23:38;;;;;;;;;;;12.00;99.90;;;;;;8262245;28;19913;-67
2021/04/29 19:27:39;;;;;;;;;;;11.80;99.90;;;;;;8262977;28;20368;-67
2021/04/29 19:31:40;;;;;;;;;;;11.80;99.90;;;;;;8266583;28;19940;-67
2021/04/29 19:35:41;;;;;;;;;;;11.70;99.90;;;;;;8261811;28;19972;-67
2021/04/29 19:39:41;;;;;;;;;;;11.60;99.90;;;;;;8270716;28;19921;-68
2021/04/29 19:43:42;;;;;;;;;;;11.30;99.90;;;;;;8250379;28;19916;-67
2021/04/29 19:47:42;;;;;;;;;;;11.20;99.90;;;;;;8267153;28;19914;-67
2021/04/29 19:51:43;;;;;;;;;;;11.10;99.90;;;;;;8262837;28;19914;-67
2021/04/29 19:55:43;;;;;;;;;;;10.70;99.90;;;;;;8264557;28;20348;-67
2021/04/29 19:59:44;;;;;;;;;;;10.60;99.90;;;;;;8283709;28;19910;-67
2021/04/29 20:03:45;;;;;;;;;;;10.60;99.90;;;;;;8247651;28;19913;-67
2021/04/29 20:07:46;;;;;;;;;;;10.40;99.90;;;;;;8261034;28;20005;-67
2021/04/29 20:11:46;;;;;;;;;;;10.70;99.90;;;;;;8273613;28;20384;-67
2021/04/29 20:15:47;;;;;;;;;;;10.60;99.90;;;;;;8264784;28;19914;-67
2021/04/29 20:19:47;;;;;;;;;;;10.00;99.90;;;;;;8276712;28;19917;-68
2021/04/29 20:23:48;;;;;;;;;;;9.70;99.90;;;;;;8278658;28;19944;-67
2021/04/29 20:27:48;;;;;;;;;;;9.60;99.90;;;;;;8270358;28;20249;-67
2021/04/29 20:31:49;;;;;;;;;;;9.70;99.90;;;;;;8274632;28;19924;-67
2021/04/29 20:35:49;;;;;;;;;;;9.80;99.90;;;;;;8277391;28;19917;-67
2021/04/29 20:39:50;;;;;;;;;;;9.80;99.90;;;;;;8276239;28;20647;-67
2021/04/29 20:43:50;;;;;;;;;;;9.90;99.90;;;;;;8277860;28;19920;-67
2021/04/29 20:47:51;;;;;;;;;;;10.00;99.90;;;;;;8278260;28;19913;-67
2021/04/29 20:51:51;;;;;;;;;;;10.00;99.90;;;;;;8280343;28;19920;-67
2021/04/29 20:55:52;;;;;;;;;;;10.00;99.90;;;;;;8278485;28;20340;-68
2021/04/29 20:59:52;;;;;;;;;;;10.10;99.90;;;;;;8279659;28;19945;-67
2021/04/29 21:03:53;;;;;;;;;;;9.90;99.90;;;;;;8281485;28;19980;-67
2021/04/29 21:07:53;;;;;;;;;;;9.80;99.90;;;;;;8264736;28;20027;-67
2021/04/29 21:11:54;;;;;;;;;;;9.70;99.90;;;;;;8297216;28;19909;-67
2021/04/29 21:15:54;;;;;;;;;;;9.70;99.90;;;;;;8297900;28;19905;-67
2021/04/29 21:19:55;;;;;;;;;;;9.60;99.90;;;;;;8297957;28;19905;-67
2021/04/29 21:23:55;;;;;;;;;;;9.70;99.90;;;;;;8297136;28;19937;-67
2021/04/29 21:27:56;;;;;;;;;;;10.00;99.90;;;;;;8270217;28;20292;-67
2021/04/29 21:31:57;;;;;;;;;;;10.10;99.90;;;;;;8264604;28;19912;-67
2021/04/29 21:35:57;;;;;;;;;;;10.00;99.90;;;;;;8246857;28;20355;-67
2021/04/29 21:39:58;;;;;;;;;;;10.00;99.90;;;;;;8264404;28;19905;-67
2021/04/29 21:43:58;;;;;;;;;;;9.80;99.90;;;;;;8262737;28;19945;-67
2021/04/29 21:47:59;;;;;;;;;;;9.60;99.90;;;;;;8264078;28;19910;-67
2021/04/29 21:51:59;;;;;;;;;;;9.60;99.90;;;;;;8263946;28;19905;-67
2021/04/29 21:56:00;;;;;;;;;;;9.40;99.90;;;;;;8264526;28;19913;-67
2021/04/29 22:00:01;;;;;;;;;;;9.40;99.90;;;;;;8264370;28;20365;-67
2021/04/29 22:04:01;;;;;;;;;;;9.30;99.90;;;;;;8246083;28;20423;-67
2021/04/29 22:08:02;;;;;;;;;;;9.50;99.90;;;;;;8245989;28;19909;-67
2021/04/29 22:12:03;;;;;;;;;;;9.50;99.90;;;;;;8263252;28;19910;-67
2021/04/29 22:16:03;;;;;;;;;;;9.50;99.90;;;;;;8263388;28;19933;-67
2021/04/29 22:20:04;;;;;;;;;;;9.50;99.90;;;;;;8263578;28;19914;-67
2021/04/29 22:24:05;;;;;;;;;;;9.30;99.90;;;;;;8245787;28;19913;-67
2021/04/29 22:28:06;;;;;;;;;;;9.30;99.90;;;;;;8263788;28;19997;-66
2021/04/29 22:32:07;;;;;;;;;;;9.30;99.90;;;;;;8263151;28;19913;-67
2021/04/29 22:36:08;;;;;;;;;;;9.30;99.90;;;;;;8245589;28;20603;-67
2021/04/29 22:40:10;;;;;;;;;;;9.70;99.90;;;;;;8263538;28;19906;-67
2021/04/29 22:44:10;;;;;;;;;;;9.70;99.90;;;;;;8245137;28;19993;-66
2021/04/29 22:48:10;;;;;;;;;;;9.80;99.90;;;;;;8262895;28;19960;-66
2021/04/29 22:52:11;;;;;;;;;;;9.70;99.90;;;;;;8262067;28;19906;-67
2021/04/29 22:56:11;;;;;;;;;;;9.70;99.90;;;;;;8245013;28;20001;-67
2021/04/29 23:00:15;;;;;;;;;;;9.70;99.90;;;;;;8262565;28;19967;-66
2021/04/29 23:04:16;;;;;;;;;;;9.70;99.90;;;;;;8261913;28;19953;-67
2021/04/29 23:08:18;;;;;;;;;;;9.60;99.90;;;;;;8261575;28;19913;-67
2021/04/29 23:12:19;;;;;;;;;;;9.50;99.90;;;;;;8244276;28;19927;-67
2021/04/29 23:16:19;;;;;;;;;;;9.60;99.90;;;;;;8261862;28;19909;-66
2021/04/29 23:20:20;;;;;;;;;;;9.90;99.90;;;;;;8244333;28;19955;-66
2021/04/29 23:24:21;;;;;;;;;;;9.90;99.90;;;;;;8261122;28;19910;-67